createdAt,value
2023-06-11T00:01:21.019Z,3.28
2023-06-11T00:03:48.648Z,3.60
2023-06-11T00:06:16.138Z,3.13
2023-06-11T00:08:43.478Z,3.15
2023-06-11T00:11:10.756Z,2.72
2023-06-11T00:13:38.078Z,3.22
2023-06-11T00:16:07.239Z,3.50
2023-06-11T00:18:34.653Z,3.20
2023-06-11T00:21:02.016Z,2.97
2023-06-11T00:23:29.404Z,3.72
2023-06-11T00:25:56.797Z,2.88
2023-06-11T00:28:24.293Z,3.10
2023-06-11T00:30:51.586Z,2.92
2023-06-11T00:33:20.234Z,2.97
2023-06-11T00:35:47.496Z,3.08
2023-06-11T00:38:14.846Z,2.97
2023-06-11T00:40:42.100Z,3.28
2023-06-11T00:43:09.351Z,2.80
2023-06-11T00:45:36.654Z,3.15
2023-06-11T00:48:04.492Z,2.63
2023-06-11T00:50:33.437Z,2.88
2023-06-11T00:53:00.684Z,2.97
2023-06-11T00:55:27.975Z,2.92
2023-06-11T00:57:55.301Z,2.83
2023-06-11T01:00:22.820Z,3.20
2023-06-11T01:02:58.052Z,2.72
2023-06-11T01:05:28.060Z,2.88
2023-06-11T01:07:57.015Z,2.70
2023-06-11T01:10:24.389Z,2.42
2023-06-11T01:12:51.658Z,2.95
2023-06-11T01:15:18.993Z,2.53
2023-06-11T01:17:51.505Z,2.47
2023-06-11T01:20:24.971Z,3.20
2023-06-11T01:23:18.727Z,2.85
2023-06-11T01:25:55.516Z,2.90
2023-06-11T01:28:29.422Z,3.72
2023-06-11T01:31:00.967Z,2.80
2023-06-11T01:33:28.517Z,2.53
2023-06-11T01:35:55.834Z,2.95
2023-06-11T01:38:23.055Z,2.88
2023-06-11T01:40:50.363Z,2.42
2023-06-11T01:43:17.699Z,2.72
2023-06-11T01:45:46.306Z,2.60
2023-06-11T01:48:13.532Z,2.30
2023-06-11T01:50:40.765Z,2.70
2023-06-11T01:53:08.058Z,2.63
2023-06-11T01:55:35.279Z,2.80
2023-06-11T01:58:02.617Z,2.30
2023-06-11T02:00:29.922Z,2.60
2023-06-11T02:02:58.669Z,2.60
2023-06-11T02:05:25.977Z,3.13
2023-06-11T02:07:53.227Z,2.47
2023-06-11T02:10:20.484Z,2.58
2023-06-11T02:12:47.822Z,2.70
2023-06-11T02:15:15.614Z,2.25
2023-06-11T02:20:11.908Z,3.10
2023-06-11T02:22:39.176Z,2.33
2023-06-11T02:25:07.576Z,2.22
2023-06-11T02:27:34.898Z,2.30
2023-06-11T02:30:02.243Z,2.40
2023-06-11T02:32:29.583Z,2.40
2023-06-11T02:34:57.118Z,2.15
2023-06-11T02:37:25.760Z,2.75
2023-06-11T02:42:21.594Z,2.22
2023-06-11T02:44:48.899Z,2.47
2023-06-11T02:47:16.190Z,2.97
2023-06-11T02:49:43.495Z,2.53
2023-06-11T02:52:10.735Z,2.10
2023-06-11T02:54:39.378Z,2.30
2023-06-11T02:57:06.719Z,2.25
2023-06-11T02:59:34.067Z,2.22
2023-06-11T03:02:01.341Z,2.05
2023-06-11T03:04:28.606Z,2.38
2023-06-11T03:06:55.820Z,2.30
2023-06-11T03:09:23.102Z,2.53
2023-06-11T03:11:51.831Z,2.35
2023-06-11T03:14:19.128Z,2.50
2023-06-11T03:16:46.341Z,2.25
2023-06-11T03:19:13.643Z,2.95
2023-06-11T03:21:40.913Z,2.65
2023-06-11T03:24:08.313Z,2.58
2023-06-11T03:26:35.665Z,2.05
2023-06-11T03:29:04.337Z,2.17
2023-06-11T03:31:31.645Z,2.40
2023-06-11T03:33:58.988Z,3.22
2023-06-11T03:36:26.203Z,2.15
2023-06-11T03:38:53.527Z,3.80
2023-06-11T03:41:20.836Z,2.53
2023-06-11T03:43:48.075Z,3.15
2023-06-11T03:46:16.751Z,2.20
2023-06-11T03:48:44.043Z,2.80
2023-06-11T03:51:11.481Z,2.90
2023-06-11T03:53:38.715Z,3.13
2023-06-11T03:56:06.076Z,2.13
2023-06-11T03:58:33.412Z,2.60
2023-06-11T04:01:00.751Z,2.80
2023-06-11T04:03:29.578Z,2.42
2023-06-11T04:05:56.955Z,2.85
2023-06-11T04:08:24.211Z,2.60
2023-06-11T04:10:51.574Z,2.15
2023-06-11T04:13:18.963Z,2.40
2023-06-11T04:15:46.209Z,2.42
2023-06-11T04:18:13.603Z,2.40
2023-06-11T04:20:42.294Z,2.90
2023-06-11T04:23:09.534Z,2.20
2023-06-11T04:25:36.790Z,2.33
2023-06-11T04:28:04.405Z,2.10
2023-06-11T04:30:31.695Z,3.00
2023-06-11T04:32:59.034Z,2.17
2023-06-11T04:35:26.332Z,2.30
2023-06-11T04:37:54.964Z,2.53
2023-06-11T04:40:23.920Z,2.50
2023-06-11T04:42:51.177Z,2.42
2023-06-11T04:45:18.549Z,2.40
2023-06-11T04:47:46.058Z,2.60
2023-06-11T04:50:13.499Z,2.95
2023-06-11T04:52:40.788Z,2.10
2023-06-11T04:55:10.415Z,2.85
2023-06-11T04:57:37.897Z,2.47
2023-06-11T05:00:06.657Z,2.60
2023-06-11T05:02:33.955Z,1.92
2023-06-11T05:05:01.272Z,2.58
2023-06-11T05:07:28.552Z,2.47
2023-06-11T05:09:55.851Z,2.17
2023-06-11T05:12:24.502Z,2.72
2023-06-11T05:14:51.756Z,2.50
2023-06-11T05:17:19.085Z,2.50
2023-06-11T05:19:46.414Z,2.50
2023-06-11T05:22:13.741Z,2.38
2023-06-11T05:24:41.070Z,2.70
2023-06-11T05:27:08.383Z,2.50
2023-06-11T05:29:37.149Z,3.00
2023-06-11T05:32:05.616Z,2.92
2023-06-11T05:34:32.914Z,2.60
2023-06-11T05:37:00.194Z,2.75
2023-06-11T05:39:27.529Z,3.45
2023-06-11T05:41:54.776Z,2.30
2023-06-11T05:44:22.029Z,2.58
2023-06-11T05:46:50.719Z,2.58
2023-06-11T05:49:18.038Z,2.95
2023-06-11T05:51:45.280Z,2.45
2023-06-11T05:54:12.617Z,2.67
2023-06-11T05:56:39.994Z,2.70
2023-06-11T05:59:07.250Z,2.50
2023-06-11T06:01:34.523Z,2.53
2023-06-11T06:04:03.479Z,3.10
2023-06-11T06:06:30.842Z,2.40
2023-06-11T06:08:58.340Z,2.50
2023-06-11T06:11:26.098Z,2.63
2023-06-11T06:13:53.383Z,5.72
2023-06-11T06:16:20.784Z,6.60
2023-06-11T06:18:48.099Z,4.82
2023-06-11T06:21:16.915Z,2.83
2023-06-11T06:23:44.201Z,3.22
2023-06-11T06:26:11.471Z,3.20
2023-06-11T06:28:38.710Z,3.58
2023-06-11T06:31:06.729Z,3.08
2023-06-11T06:33:33.985Z,2.95
2023-06-11T06:36:01.245Z,3.08
2023-06-11T06:38:29.950Z,3.95
2023-06-11T06:40:57.282Z,4.20
2023-06-11T06:43:24.548Z,4.00
2023-06-11T06:45:51.864Z,3.40
2023-06-11T06:48:19.186Z,3.15
2023-06-11T06:50:46.504Z,3.17
2023-06-11T06:53:13.926Z,3.67
2023-06-11T06:55:42.566Z,3.75
2023-06-11T06:58:09.817Z,3.13
2023-06-11T07:00:37.230Z,3.13
2023-06-11T07:03:04.640Z,3.65
2023-06-11T07:05:31.960Z,3.33
2023-06-11T07:07:59.345Z,3.40
2023-06-11T07:10:26.655Z,3.80
2023-06-11T07:12:56.606Z,2.85
2023-06-11T07:15:26.029Z,3.70
2023-06-11T07:17:53.347Z,3.65
2023-06-11T07:20:20.949Z,3.30
2023-06-11T07:25:15.315Z,3.28
2023-06-11T07:27:42.603Z,4.13
2023-06-11T07:30:12.797Z,3.40
2023-06-11T07:32:40.404Z,3.45
2023-06-11T07:35:08.122Z,4.20
2023-06-11T07:37:35.380Z,3.72
2023-06-11T07:40:02.758Z,3.55
2023-06-11T07:42:30.089Z,3.50
2023-06-11T07:44:57.529Z,3.53
2023-06-11T07:47:26.245Z,3.45
2023-06-11T07:49:53.541Z,3.60
2023-06-11T07:52:20.912Z,3.42
2023-06-11T07:54:48.167Z,3.67
2023-06-11T07:57:15.405Z,8.55
2023-06-11T07:59:42.913Z,4.43
2023-06-11T08:04:39.216Z,3.58
2023-06-11T08:07:06.653Z,3.97
2023-06-11T08:12:01.534Z,3.47
2023-06-11T08:14:28.836Z,4.25
2023-06-11T08:16:56.180Z,3.67
2023-06-11T08:19:23.613Z,3.92
2023-06-11T08:24:19.539Z,4.00
2023-06-11T08:26:46.868Z,4.05
2023-06-11T08:29:14.247Z,3.90
2023-06-11T08:34:08.865Z,3.67
2023-06-11T08:36:36.356Z,3.92
2023-06-11T08:39:05.122Z,3.55
2023-06-11T08:41:32.567Z,3.75
2023-06-11T08:44:00.336Z,4.10
2023-06-11T08:46:28.344Z,3.90
2023-06-11T08:48:59.073Z,3.88
2023-06-11T08:51:28.033Z,3.72
2023-06-11T08:53:55.312Z,4.00
2023-06-11T08:56:25.597Z,4.20
2023-06-11T08:58:54.226Z,4.00
2023-06-11T09:01:22.887Z,4.22
2023-06-11T09:03:50.204Z,4.47
2023-06-11T09:06:18.764Z,3.92
2023-06-11T09:08:59.088Z,4.20
2023-06-11T09:11:33.653Z,4.68
2023-06-11T09:14:01.269Z,4.30
2023-06-11T09:16:28.936Z,4.55
2023-06-11T09:18:56.684Z,4.20
2023-06-11T09:21:24.925Z,4.43
2023-06-11T09:23:52.540Z,4.57
2023-06-11T09:26:19.931Z,4.18
2023-06-11T09:28:50.397Z,4.32
2023-06-11T09:31:19.491Z,4.07
2023-06-11T09:33:46.988Z,3.90
2023-06-11T09:36:17.338Z,4.30
2023-06-11T09:38:46.712Z,3.80
2023-06-11T09:41:14.121Z,4.30
2023-06-11T09:43:41.483Z,4.75
2023-06-11T09:46:11.702Z,4.28
2023-06-11T09:48:41.457Z,4.65
2023-06-11T09:51:09.298Z,4.20
2023-06-11T09:53:37.428Z,4.57
2023-06-11T09:56:11.117Z,4.80
2023-06-11T09:58:40.560Z,4.70
2023-06-11T10:01:11.319Z,4.80
2023-06-11T10:03:39.054Z,4.57
2023-06-11T10:06:12.291Z,4.50
2023-06-11T10:08:41.577Z,4.95
2023-06-11T10:11:09.354Z,4.63
2023-06-11T10:13:37.027Z,5.00
2023-06-11T10:16:08.400Z,4.57
2023-06-11T10:18:37.276Z,4.70
2023-06-11T10:21:05.348Z,4.88
2023-06-11T10:23:36.486Z,5.22
2023-06-11T10:26:04.163Z,4.70
2023-06-11T10:28:38.781Z,4.35
2023-06-11T10:31:06.449Z,4.50
2023-06-11T10:33:43.158Z,4.45
2023-06-11T10:36:10.731Z,4.70
2023-06-11T10:38:38.599Z,5.22
2023-06-11T10:41:06.271Z,4.65
2023-06-11T10:43:37.122Z,4.82
2023-06-11T10:46:05.513Z,5.70
2023-06-11T10:48:32.985Z,5.25
2023-06-11T10:51:05.302Z,5.22
2023-06-11T10:53:39.801Z,5.03
2023-06-11T10:56:07.573Z,5.63
2023-06-11T10:58:35.416Z,5.53
2023-06-11T11:01:02.969Z,5.40
2023-06-11T11:03:31.430Z,5.47
2023-06-11T11:05:58.826Z,5.32
2023-06-11T11:08:27.759Z,6.70
2023-06-11T11:10:55.701Z,6.00
2023-06-11T11:13:23.852Z,5.95
2023-06-11T11:15:51.954Z,6.30
2023-06-11T11:18:19.291Z,6.55
2023-06-11T11:20:46.607Z,6.57
2023-06-11T11:23:14.026Z,6.43
2023-06-11T11:25:42.727Z,6.80
2023-06-11T11:28:11.568Z,5.97
2023-06-11T11:30:39.232Z,5.85
2023-06-11T11:33:06.891Z,8.88
2023-06-11T11:35:45.062Z,8.07
2023-06-11T11:38:12.359Z,6.97
2023-06-11T11:40:39.770Z,6.85
2023-06-11T11:43:12.054Z,7.82
2023-06-11T11:45:39.367Z,7.30
2023-06-11T11:48:08.338Z,6.97
2023-06-11T11:50:35.662Z,6.65
2023-06-11T11:53:04.684Z,7.65
2023-06-11T11:55:34.542Z,7.00
2023-06-11T11:58:04.098Z,7.63
2023-06-11T12:00:33.014Z,7.15
2023-06-11T12:03:07.193Z,7.05
2023-06-11T12:05:34.961Z,7.43
2023-06-11T12:08:02.676Z,7.45
2023-06-11T12:10:29.976Z,7.38
2023-06-11T12:12:58.351Z,7.22
2023-06-11T12:15:25.656Z,6.95
2023-06-11T12:17:54.569Z,7.65
2023-06-11T12:20:22.088Z,7.63
2023-06-11T12:22:50.041Z,7.18
2023-06-11T12:25:17.433Z,7.25
2023-06-11T12:27:44.822Z,7.60
2023-06-11T12:30:13.272Z,7.43
2023-06-11T12:32:41.137Z,8.20
2023-06-11T12:35:10.492Z,7.05
2023-06-11T12:37:37.762Z,7.00
2023-06-11T12:40:06.409Z,6.78
2023-06-11T12:42:33.777Z,7.07
2023-06-11T12:45:01.099Z,7.47
2023-06-11T12:47:28.377Z,8.23
2023-06-11T12:49:55.949Z,8.15
2023-06-11T12:52:26.228Z,6.65
2023-06-11T12:54:53.794Z,7.45
2023-06-11T12:57:21.103Z,6.65
2023-06-11T12:59:48.349Z,7.53
2023-06-11T13:04:46.817Z,6.53
2023-06-11T13:07:14.232Z,6.85
2023-06-11T13:09:43.085Z,7.32
2023-06-11T13:12:10.756Z,7.00
2023-06-11T13:14:38.118Z,7.00
2023-06-11T13:17:05.806Z,7.95
2023-06-11T13:19:33.098Z,7.22
2023-06-11T13:22:01.028Z,7.18
2023-06-11T13:24:28.487Z,8.20
2023-06-11T13:26:57.127Z,7.30
2023-06-11T13:29:24.500Z,8.85
2023-06-11T13:31:51.831Z,8.23
2023-06-11T13:34:19.442Z,7.57
2023-06-11T13:36:47.205Z,7.72
2023-06-11T13:39:14.474Z,7.30
2023-06-11T13:44:10.564Z,18.60
2023-06-11T13:46:37.829Z,7.57
2023-06-11T13:51:32.137Z,7.70
2023-06-11T13:53:59.943Z,7.45
2023-06-11T13:56:28.517Z,7.32
2023-06-11T13:58:56.821Z,7.22
2023-06-11T14:01:25.465Z,7.07
2023-06-11T14:03:53.863Z,5.82
2023-06-11T14:06:22.526Z,6.43
2023-06-11T14:08:50.243Z,6.28
2023-06-11T14:11:17.574Z,6.53
2023-06-11T14:13:45.105Z,7.30
2023-06-11T14:16:14.728Z,6.75
2023-06-11T14:18:43.407Z,6.18
2023-06-11T14:21:10.680Z,6.18
2023-06-11T14:23:41.013Z,6.03
2023-06-11T14:26:08.542Z,5.65
2023-06-11T14:28:38.987Z,6.20
2023-06-11T14:31:06.291Z,6.22
2023-06-11T14:33:33.753Z,5.82
2023-06-11T14:36:06.208Z,5.63
2023-06-11T14:38:33.988Z,6.07
2023-06-11T14:41:01.482Z,6.20
2023-06-11T14:43:29.042Z,6.05
2023-06-11T14:45:57.617Z,6.53
2023-06-11T14:48:25.899Z,6.15
2023-06-11T14:50:53.165Z,6.25
2023-06-11T14:53:21.874Z,6.43
2023-06-11T14:55:50.234Z,6.07
2023-06-11T14:58:17.518Z,6.18
2023-06-11T15:00:44.851Z,6.18
2023-06-11T15:03:16.209Z,6.13
2023-06-11T15:05:43.437Z,6.07
2023-06-11T15:08:10.697Z,6.32
2023-06-11T15:10:40.482Z,6.53
2023-06-11T15:13:07.941Z,5.63
2023-06-11T15:18:02.330Z,5.78
2023-06-11T15:20:29.830Z,5.82
2023-06-11T15:22:57.162Z,6.05
2023-06-11T15:25:25.506Z,5.57
2023-06-11T15:27:54.213Z,5.93
2023-06-11T15:30:21.894Z,5.80
2023-06-11T15:32:50.350Z,6.05
2023-06-11T15:35:17.964Z,5.68
2023-06-11T15:37:45.259Z,6.93
2023-06-11T15:42:40.447Z,5.90
2023-06-11T15:45:10.562Z,6.03
2023-06-11T15:47:39.540Z,5.80
2023-06-11T15:50:08.138Z,6.43
2023-06-11T15:52:35.440Z,6.22
2023-06-11T15:57:30.720Z,5.93
2023-06-11T16:02:26.753Z,5.85
2023-06-11T16:04:54.160Z,6.18
2023-06-11T16:09:50.076Z,6.50
2023-06-11T16:12:17.325Z,5.90
2023-06-11T16:17:11.736Z,5.93
2023-06-11T16:19:40.370Z,6.57
2023-06-11T16:22:09.801Z,5.82
2023-06-11T16:24:39.449Z,5.95
2023-06-11T16:27:07.582Z,6.35
2023-06-11T16:29:34.892Z,5.90
2023-06-11T16:32:02.254Z,5.63
2023-06-11T16:34:29.573Z,6.60
2023-06-11T16:37:00.767Z,5.43
2023-06-11T16:39:28.957Z,7.15
2023-06-11T16:41:56.697Z,5.70
2023-06-11T16:44:24.296Z,5.93
2023-06-11T16:46:52.512Z,5.40
2023-06-11T16:49:19.886Z,5.70
2023-06-11T16:51:47.434Z,5.82
2023-06-11T16:54:19.339Z,5.55
2023-06-11T16:56:46.749Z,6.35
2023-06-11T16:59:15.445Z,6.03
2023-06-11T17:01:43.838Z,5.00
2023-06-11T17:04:11.889Z,5.50
2023-06-11T17:06:41.586Z,5.97
2023-06-11T17:09:09.042Z,5.13
2023-06-11T17:11:39.944Z,5.13
2023-06-11T17:14:07.473Z,5.07
2023-06-11T17:16:34.875Z,5.32
2023-06-11T17:19:02.163Z,5.47
2023-06-11T17:21:29.769Z,5.60
2023-06-11T17:23:57.059Z,6.03
2023-06-11T17:26:25.723Z,5.97
2023-06-11T17:28:54.594Z,6.07
2023-06-11T17:31:21.910Z,5.40
2023-06-11T17:36:16.491Z,8.35
2023-06-11T17:38:45.271Z,5.72
2023-06-11T17:43:40.021Z,5.28
2023-06-11T17:46:09.125Z,6.30
2023-06-11T17:48:36.400Z,5.43
2023-06-11T17:53:31.145Z,6.50
2023-06-11T17:55:58.514Z,7.45
2023-06-11T17:58:25.812Z,6.25
2023-06-11T18:03:21.396Z,5.35
2023-06-11T18:05:48.906Z,4.63
2023-06-11T18:08:16.179Z,5.20
2023-06-11T18:10:43.481Z,5.05
2023-06-11T18:15:39.108Z,5.05
2023-06-11T18:18:08.457Z,5.07
2023-06-11T18:20:37.221Z,6.07
2023-06-11T18:23:04.494Z,5.57
2023-06-11T18:25:31.826Z,5.43
2023-06-11T18:27:59.301Z,6.03
2023-06-11T18:32:53.629Z,6.53
2023-06-11T18:37:49.354Z,6.20
2023-06-11T18:40:16.878Z,6.25
2023-06-11T18:42:44.611Z,5.65
2023-06-11T18:45:11.901Z,5.88
2023-06-11T18:47:39.461Z,6.72
2023-06-11T18:50:08.122Z,7.18
2023-06-11T18:52:35.395Z,7.97
2023-06-11T18:55:04.854Z,7.38
2023-06-11T18:57:32.159Z,8.70
2023-06-11T19:00:00.491Z,8.35
2023-06-11T19:02:28.201Z,10.60
2023-06-11T19:04:55.588Z,11.25
2023-06-11T19:09:49.830Z,10.40
2023-06-11T19:12:18.874Z,9.18
2023-06-11T19:14:46.196Z,6.65
2023-06-11T19:17:13.806Z,6.32
2023-06-11T19:19:42.186Z,6.28
2023-06-11T19:22:09.485Z,6.57
2023-06-11T19:24:36.789Z,6.07
2023-06-11T19:27:04.914Z,6.03
2023-06-11T19:29:33.571Z,6.47
2023-06-11T19:32:01.125Z,6.57
2023-06-11T19:34:28.645Z,6.45
2023-06-11T19:36:56.010Z,5.93
2023-06-11T19:39:23.356Z,6.47
2023-06-11T19:44:17.814Z,5.85
2023-06-11T19:46:46.752Z,6.13
2023-06-11T19:49:14.088Z,6.22
2023-06-11T19:51:41.342Z,6.05
2023-06-11T19:54:08.651Z,6.47
2023-06-11T19:56:36.976Z,6.30
2023-06-11T19:59:04.208Z,6.22
2023-06-11T20:01:31.517Z,5.82
2023-06-11T20:04:00.283Z,5.68
2023-06-11T20:06:27.702Z,5.72
2023-06-11T20:11:21.982Z,7.20
2023-06-11T20:13:49.244Z,6.93
2023-06-11T20:16:16.566Z,7.13
2023-06-11T20:21:12.419Z,6.40
2023-06-11T20:23:39.946Z,6.85
2023-06-11T20:26:07.235Z,6.65
2023-06-11T20:28:34.488Z,6.57
2023-06-11T20:31:01.796Z,6.25
2023-06-11T20:33:29.335Z,6.50
2023-06-11T20:35:56.628Z,5.88
2023-06-11T20:38:25.286Z,6.38
2023-06-11T20:40:52.992Z,7.10
2023-06-11T20:43:20.264Z,6.07
2023-06-11T20:48:25.714Z,7.15
2023-06-11T20:50:53.388Z,5.97
2023-06-11T20:53:33.298Z,6.05
2023-06-11T20:56:04.485Z,6.60
2023-06-11T20:58:31.854Z,5.80
2023-06-11T21:00:59.145Z,6.30
2023-06-11T21:03:26.569Z,6.07
2023-06-11T21:05:54.132Z,6.20
2023-06-11T21:10:48.980Z,5.13
2023-06-11T21:13:17.712Z,6.43
2023-06-11T21:15:46.482Z,6.25
2023-06-11T21:18:13.813Z,6.30
2023-06-11T21:20:41.123Z,5.75
2023-06-11T21:23:08.466Z,6.03
2023-06-11T21:25:35.876Z,7.30
2023-06-11T21:30:31.685Z,5.95
2023-06-11T21:33:02.341Z,5.57
2023-06-11T21:35:29.797Z,5.32
2023-06-11T21:40:26.335Z,5.63
2023-06-11T21:42:53.629Z,5.43
2023-06-11T21:45:22.105Z,5.30
2023-06-11T21:47:50.815Z,6.35
2023-06-11T21:50:18.396Z,5.65
2023-06-11T21:52:45.676Z,6.13
2023-06-11T21:55:12.991Z,6.07
2023-06-11T21:57:40.269Z,5.45
2023-06-11T22:00:08.720Z,6.00
2023-06-11T22:02:36.133Z,5.72
2023-06-11T22:05:05.397Z,5.28
2023-06-11T22:07:32.864Z,5.05
2023-06-11T22:10:00.231Z,5.10
2023-06-11T22:12:27.492Z,5.90
2023-06-11T22:14:54.800Z,5.30
2023-06-11T22:17:22.167Z,4.93
2023-06-11T22:19:49.499Z,4.85
2023-06-11T22:22:18.140Z,5.47
2023-06-11T22:24:45.477Z,5.32
2023-06-11T22:27:12.720Z,5.03
2023-06-11T22:29:40.597Z,5.60
2023-06-11T22:32:08.781Z,4.82
2023-06-11T22:34:36.120Z,5.20
2023-06-11T22:37:03.404Z,6.05
2023-06-11T22:39:32.047Z,4.68
2023-06-11T22:41:59.280Z,5.93
2023-06-11T22:44:26.526Z,5.53
2023-06-11T22:46:53.871Z,5.70
2023-06-11T22:49:21.220Z,5.43
2023-06-11T22:51:48.480Z,5.18
2023-06-11T22:54:15.861Z,5.40
2023-06-11T22:56:44.495Z,5.20
2023-06-11T22:59:11.775Z,5.60
2023-06-11T23:01:39.105Z,5.20
2023-06-11T23:04:06.444Z,5.68
2023-06-11T23:06:33.671Z,5.20
2023-06-11T23:09:00.967Z,4.55
2023-06-11T23:11:28.296Z,5.15
2023-06-11T23:13:56.893Z,4.82
2023-06-11T23:16:24.130Z,4.78
2023-06-11T23:18:51.476Z,5.05
2023-06-11T23:21:18.733Z,5.40
2023-06-11T23:23:45.996Z,4.93
2023-06-11T23:26:13.227Z,4.90
2023-06-11T23:28:40.556Z,5.45
2023-06-11T23:31:09.271Z,5.28
2023-06-11T23:33:36.515Z,4.97
2023-06-11T23:36:04.284Z,4.90
2023-06-11T23:38:43.678Z,4.85
2023-06-11T23:41:11.025Z,5.05
2023-06-11T23:43:38.290Z,5.00
2023-06-11T23:46:05.755Z,4.75
2023-06-11T23:48:34.433Z,4.70
2023-06-11T23:51:01.711Z,4.40
2023-06-11T23:53:29.021Z,4.95
2023-06-11T23:55:56.297Z,4.20
2023-06-11T23:58:24.152Z,4.43
